Time;durP1;ratioP1;P1;durP2;ratioP2;P2;SDS_P1;SDS_P2;PMS_P1;PMS_P2;Temp;Humidity;BMP_temperature;BMP_pressure;BME280_temperature;BME280_humidity;BME280_pressure;Samples;Min_cycle;Max_cycle;Signal;HPM_P1;HPM_P2
2024/02/21 00:02:21;;;;;;;10.38;2.83;;;12.10;99.90;;;;;;5092939;28;20031;-78
2024/02/21 00:04:47;;;;;;;5.95;2.47;;;12.10;99.90;;;;;;5093816;28;20040;-78
2024/02/21 00:07:13;;;;;;;13.23;3.33;;;12.10;99.90;;;;;;5097146;28;20147;-78
2024/02/21 00:09:38;;;;;;;11.55;3.22;;;12.20;99.90;;;;;;5098294;28;20096;-78
2024/02/21 00:12:05;;;;;;;6.95;2.42;;;12.20;99.90;;;;;;5102697;28;20089;-78
2024/02/21 00:14:33;;;;;;;6.72;2.28;;;12.20;99.90;;;;;;5099263;28;20047;-78
2024/02/21 00:16:59;;;;;;;12.13;3.33;;;12.20;99.90;;;;;;5099791;28;20036;-78
2024/02/21 00:19:27;;;;;;;10.13;2.50;;;12.20;99.90;;;;;;5093759;28;20112;-78
2024/02/21 00:21:53;;;;;;;11.13;2.78;;;12.20;99.90;;;;;;5101050;28;20081;-78
2024/02/21 00:24:19;;;;;;;14.23;2.25;;;12.30;99.90;;;;;;5093795;28;20031;-78
2024/02/21 00:26:44;;;;;;;14.65;2.67;;;12.30;99.90;;;;;;5105049;28;20093;-78
2024/02/21 00:29:10;;;;;;;8.00;2.67;;;12.30;99.90;;;;;;5108533;28;20032;-78
2024/02/21 00:31:35;;;;;;;14.23;3.40;;;12.30;99.90;;;;;;5098441;28;20048;-78
2024/02/21 00:34:01;;;;;;;7.20;2.13;;;12.30;99.90;;;;;;5090484;28;20031;-79
2024/02/21 00:36:27;;;;;;;7.63;2.50;;;12.20;99.90;;;;;;5103916;28;20024;-78
2024/02/21 00:38:52;;;;;;;14.40;3.38;;;12.20;99.90;;;;;;5090959;28;20160;-79
2024/02/21 00:41:18;;;;;;;13.57;2.92;;;12.20;99.90;;;;;;5091497;28;20070;-78
2024/02/21 00:43:43;;;;;;;9.70;2.08;;;12.20;99.90;;;;;;5103141;28;20081;-78
2024/02/21 00:46:12;;;;;;;12.77;2.60;;;12.20;99.90;;;;;;5101482;28;20123;-78
2024/02/21 00:48:37;;;;;;;8.85;2.25;;;12.20;99.90;;;;;;5102166;28;20047;-78
2024/02/21 00:51:03;;;;;;;9.50;1.88;;;12.20;99.90;;;;;;5089763;28;20484;-78
2024/02/21 00:53:30;;;;;;;10.15;2.30;;;12.20;99.90;;;;;;5093841;28;20491;-78
2024/02/21 00:55:56;;;;;;;9.90;2.28;;;12.20;99.90;;;;;;5097408;28;20078;-78
2024/02/21 00:58:22;;;;;;;7.10;2.85;;;12.20;99.90;;;;;;5104847;28;20042;-78
2024/02/21 01:00:48;;;;;;;12.68;2.40;;;12.20;99.90;;;;;;5095163;28;20047;-78
2024/02/21 01:03:13;;;;;;;20.48;4.00;;;12.20;99.90;;;;;;5096600;28;20028;-78
2024/02/21 01:05:39;;;;;;;11.48;3.25;;;12.20;99.90;;;;;;5091076;28;20084;-78
2024/02/21 01:08:05;;;;;;;20.20;3.47;;;12.20;99.90;;;;;;5103111;28;20038;-78
2024/02/21 01:10:31;;;;;;;22.30;2.90;;;12.20;99.90;;;;;;5101984;28;20115;-79
2024/02/21 01:12:57;;;;;;;12.25;3.47;;;12.20;99.90;;;;;;5099731;28;20111;-78
2024/02/21 01:15:22;;;;;;;7.95;2.08;;;12.20;99.90;;;;;;5089936;28;20020;-79
2024/02/21 01:17:49;;;;;;;5.88;2.45;;;12.20;99.90;;;;;;5102707;28;20426;-79
2024/02/21 01:20:15;;;;;;;16.00;2.88;;;12.20;99.90;;;;;;5096410;28;20483;-78
2024/02/21 01:22:41;;;;;;;7.00;2.70;;;12.20;99.90;;;;;;5105055;28;20035;-78
2024/02/21 01:25:07;;;;;;;6.28;1.90;;;12.10;99.90;;;;;;5091860;28;20036;-79
2024/02/21 01:27:32;;;;;;;11.10;2.75;;;12.20;99.90;;;;;;5102687;28;20016;-78
2024/02/21 01:29:58;;;;;;;13.30;3.30;;;12.20;99.90;;;;;;5096421;28;20169;-78
2024/02/21 01:32:26;;;;;;;13.98;3.20;;;12.20;99.90;;;;;;5100960;28;20072;-79
2024/02/21 01:34:52;;;;;;;20.23;3.83;;;12.20;99.90;;;;;;5103975;28;20839;-78
2024/02/21 01:37:18;;;;;;;7.75;2.75;;;12.20;99.90;;;;;;5096726;28;20027;-78
2024/02/21 01:39:43;;;;;;;16.60;4.28;;;12.10;99.90;;;;;;5101841;28;20406;-78
2024/02/21 01:42:09;;;;;;;10.93;3.00;;;12.10;99.90;;;;;;5107366;27;20103;-78
2024/02/21 01:44:36;;;;;;;9.20;2.92;;;12.10;99.90;;;;;;5106345;28;20027;-78
2024/02/21 01:47:02;;;;;;;18.42;3.80;;;12.10;99.90;;;;;;5105606;28;20023;-78
2024/02/21 01:49:28;;;;;;;13.43;3.80;;;12.00;99.90;;;;;;5103323;28;20039;-78
2024/02/21 01:51:54;;;;;;;9.07;2.67;;;12.10;99.90;;;;;;5107985;28;20051;-77
2024/02/21 01:54:20;;;;;;;9.85;3.15;;;12.00;99.90;;;;;;5094403;28;20122;-78
2024/02/21 01:56:47;;;;;;;19.48;4.43;;;12.00;99.90;;;;;;5091620;28;20110;-78
2024/02/21 01:59:17;;;;;;;11.30;3.08;;;12.00;99.90;;;;;;5093554;28;20043;-78
2024/02/21 02:01:46;;;;;;;14.75;3.38;;;12.00;99.90;;;;;;5102635;28;20104;-79
2024/02/21 02:04:12;;;;;;;16.73;3.65;;;12.00;99.90;;;;;;5100433;28;20036;-78
2024/02/21 02:06:37;;;;;;;7.40;3.40;;;12.00;99.90;;;;;;5091651;28;20036;-78
2024/02/21 02:09:03;;;;;;;7.70;2.33;;;12.00;99.90;;;;;;5090680;28;20051;-78
2024/02/21 02:11:31;;;;;;;9.25;3.17;;;12.00;99.90;;;;;;5103056;28;20019;-79
2024/02/21 02:13:57;;;;;;;4.63;1.73;;;11.90;99.90;;;;;;5091905;28;20048;-78
2024/02/21 02:16:23;;;;;;;9.23;3.40;;;12.00;99.90;;;;;;5101554;28;20062;-78
2024/02/21 02:18:48;;;;;;;4.30;2.17;;;11.90;99.90;;;;;;5089741;28;20024;-78
2024/02/21 02:21:36;;;;;;;9.38;2.15;;;11.90;99.90;;;;;;5097343;28;20051;-78
2024/02/21 02:24:03;;;;;;;5.57;1.88;;;11.90;99.90;;;;;;5093703;28;20085;-78
2024/02/21 02:26:28;;;;;;;5.35;2.00;;;11.90;99.90;;;;;;5102474;28;20035;-78
2024/02/21 02:28:54;;;;;;;7.82;2.58;;;11.90;99.90;;;;;;5103244;28;20024;-77
2024/02/21 02:31:20;;;;;;;7.60;2.58;;;11.90;99.90;;;;;;5094500;28;20066;-77
2024/02/21 02:33:45;;;;;;;7.25;2.38;;;11.90;99.90;;;;;;5100463;28;20036;-78
2024/02/21 02:36:12;;;;;;;5.03;1.85;;;11.90;99.90;;;;;;5093022;28;20042;-79
2024/02/21 02:38:37;;;;;;;10.40;2.83;;;11.90;99.90;;;;;;5088910;28;20421;-78
2024/02/21 02:41:03;;;;;;;9.55;2.70;;;11.90;99.90;;;;;;5105213;27;20095;-79
2024/02/21 02:43:29;;;;;;;10.68;3.17;;;11.90;99.90;;;;;;5092935;28;20035;-78
2024/02/21 02:45:55;;;;;;;5.78;2.28;;;11.90;99.90;;;;;;5107908;28;20031;-78
2024/02/21 02:48:21;;;;;;;13.05;3.22;;;11.90;99.90;;;;;;5091142;28;20383;-79
2024/02/21 02:50:46;;;;;;;9.32;2.90;;;11.90;99.90;;;;;;5097800;28;20051;-78
2024/02/21 02:53:12;;;;;;;9.88;2.63;;;11.90;99.90;;;;;;5091732;28;20421;-78
2024/02/21 02:55:38;;;;;;;8.68;2.55;;;11.90;99.90;;;;;;5093997;28;20032;-78
2024/02/21 02:58:04;;;;;;;11.02;3.85;;;11.90;99.90;;;;;;5101385;28;20505;-79
2024/02/21 03:00:29;;;;;;;7.43;2.35;;;11.90;99.90;;;;;;5098448;28;20036;-78
2024/02/21 03:02:55;;;;;;;25.98;2.80;;;11.90;99.90;;;;;;5089980;28;20077;-79
2024/02/21 03:05:21;;;;;;;9.70;3.13;;;11.90;99.90;;;;;;5094211;28;20071;-78
2024/02/21 03:07:48;;;;;;;11.55;3.13;;;11.80;99.90;;;;;;5092103;28;20055;-78
2024/02/21 03:10:16;;;;;;;10.00;3.22;;;11.90;99.90;;;;;;5097504;28;20395;-78
2024/02/21 03:12:42;;;;;;;15.20;3.25;;;11.90;99.90;;;;;;5093521;28;20029;-78
2024/02/21 03:15:08;;;;;;;18.65;2.95;;;11.90;99.90;;;;;;5094793;28;20123;-78
2024/02/21 03:17:34;;;;;;;10.88;2.88;;;11.90;99.90;;;;;;5087377;28;20024;-78
2024/02/21 03:20:09;;;;;;;13.85;3.63;;;11.90;99.90;;;;;;5092328;28;20125;-78
2024/02/21 03:22:35;;;;;;;7.68;2.75;;;11.90;99.90;;;;;;5104432;28;20047;-78
2024/02/21 03:25:00;;;;;;;16.38;3.53;;;11.90;99.90;;;;;;5090774;28;20533;-78
2024/02/21 03:27:26;;;;;;;16.08;3.28;;;11.90;99.90;;;;;;5097581;28;20804;-78
2024/02/21 03:29:52;;;;;;;13.90;3.63;;;11.90;99.90;;;;;;5092004;28;20204;-78
2024/02/21 03:32:18;;;;;;;15.90;3.97;;;11.90;99.90;;;;;;5091633;28;20044;-78
2024/02/21 03:34:46;;;;;;;11.02;3.30;;;11.90;99.90;;;;;;5098205;28;20036;-78
2024/02/21 03:37:13;;;;;;;16.70;2.45;;;11.90;99.90;;;;;;5108937;27;20034;-78
2024/02/21 03:39:39;;;;;;;7.47;2.38;;;11.90;99.90;;;;;;5096619;27;20047;-78
2024/02/21 03:42:05;;;;;;;14.57;3.28;;;11.90;99.90;;;;;;5112642;27;20028;-78
2024/02/21 03:44:32;;;;;;;10.60;3.17;;;11.90;99.90;;;;;;5102252;27;20032;-79
2024/02/21 03:46:59;;;;;;;12.27;3.17;;;11.90;99.90;;;;;;5098969;28;20106;-78
2024/02/21 03:49:25;;;;;;;15.93;4.35;;;11.90;99.90;;;;;;5097016;28;20039;-78
2024/02/21 03:51:51;;;;;;;6.63;2.47;;;11.90;99.90;;;;;;5102432;28;20056;-79
2024/02/21 03:54:16;;;;;;;12.60;3.22;;;11.90;99.90;;;;;;5119438;27;20032;-78
2024/02/21 03:56:42;;;;;;;10.90;2.80;;;12.00;99.90;;;;;;5109775;28;20035;-78
2024/02/21 03:59:08;;;;;;;16.55;3.85;;;12.00;99.90;;;;;;5098576;28;20528;-78
2024/02/21 04:01:35;;;;;;;8.93;2.92;;;12.00;99.90;;;;;;5119670;27;20409;-78
2024/02/21 04:04:00;;;;;;;13.30;4.00;;;11.90;99.90;;;;;;5104358;27;20064;-78
2024/02/21 04:06:26;;;;;;;14.63;3.55;;;12.00;99.90;;;;;;5097856;27;20426;-78
2024/02/21 04:08:52;;;;;;;12.25;3.55;;;11.90;99.90;;;;;;5114998;27;20523;-78
2024/02/21 04:11:18;;;;;;;19.88;3.88;;;11.90;99.90;;;;;;5116403;27;20141;-77
2024/02/21 04:13:44;;;;;;;14.10;2.78;;;11.90;99.90;;;;;;5099977;28;20035;-78
2024/02/21 04:16:10;;;;;;;16.50;3.83;;;11.90;99.90;;;;;;5090872;28;20067;-78
2024/02/21 04:18:36;;;;;;;13.50;3.40;;;11.90;99.90;;;;;;5101877;27;20063;-78
2024/02/21 04:21:02;;;;;;;18.17;3.58;;;11.90;99.90;;;;;;5090382;28;20032;-78
2024/02/21 04:23:27;;;;;;;19.00;3.55;;;11.90;99.90;;;;;;5092209;28;20081;-78
2024/02/21 04:25:53;;;;;;;13.32;3.38;;;11.90;99.90;;;;;;5096012;28;20028;-78
2024/02/21 04:28:19;;;;;;;19.27;3.05;;;11.90;99.90;;;;;;5098637;28;20077;-78
2024/02/21 04:30:47;;;;;;;10.25;2.58;;;11.90;99.90;;;;;;5091039;28;20024;-78
2024/02/21 04:33:12;;;;;;;20.30;4.07;;;11.90;99.90;;;;;;5089665;28;20463;-78
2024/02/21 04:35:39;;;;;;;6.30;2.10;;;12.00;99.90;;;;;;5097374;27;20353;-78
2024/02/21 04:38:05;;;;;;;11.77;2.92;;;12.00;99.90;;;;;;5097269;28;20020;-78
2024/02/21 04:40:30;;;;;;;13.60;2.80;;;12.00;99.90;;;;;;5103325;28;20039;-78
2024/02/21 04:42:57;;;;;;;13.57;3.05;;;12.00;99.90;;;;;;5100449;28;21462;-78
2024/02/21 04:45:22;;;;;;;19.13;3.65;;;12.00;99.90;;;;;;5108654;27;20039;-77
2024/02/21 04:47:48;;;;;;;8.27;2.50;;;12.00;99.90;;;;;;5098724;28;20077;-78
2024/02/21 04:50:14;;;;;;;13.95;4.18;;;12.00;99.90;;;;;;5102049;28;20042;-78
2024/02/21 04:52:40;;;;;;;19.23;4.07;;;12.00;99.90;;;;;;5090805;28;20055;-78
2024/02/21 04:55:06;;;;;;;19.50;3.92;;;12.00;99.90;;;;;;5088916;28;20738;-78
2024/02/21 04:57:32;;;;;;;16.13;3.53;;;12.00;99.90;;;;;;5098843;28;20035;-78
2024/02/21 04:59:58;;;;;;;25.55;4.35;;;11.90;99.90;;;;;;5107327;28;22101;-78
2024/02/21 05:02:24;;;;;;;8.35;2.85;;;12.00;99.90;;;;;;5098846;28;20027;-78
2024/02/21 05:04:50;;;;;;;23.35;4.35;;;11.90;99.90;;;;;;5106909;28;20035;-78
2024/02/21 05:07:16;;;;;;;16.45;3.08;;;11.90;99.90;;;;;;5101339;28;20052;-78
2024/02/21 05:09:42;;;;;;;13.63;3.15;;;11.90;99.90;;;;;;5093047;27;20047;-77
2024/02/21 05:12:08;;;;;;;14.73;2.47;;;12.00;99.90;;;;;;5088927;28;20945;-78
2024/02/21 05:14:34;;;;;;;11.20;2.97;;;12.00;99.90;;;;;;5095652;28;20041;-78
2024/02/21 05:17:00;;;;;;;7.22;2.60;;;12.00;99.90;;;;;;5093879;28;20081;-77
2024/02/21 05:19:25;;;;;;;11.80;2.25;;;12.00;99.90;;;;;;5096557;28;20036;-78
2024/02/21 05:21:51;;;;;;;5.80;1.90;;;12.10;99.90;;;;;;5095266;28;20469;-78
2024/02/21 05:24:16;;;;;;;8.10;2.95;;;12.10;99.90;;;;;;5094967;28;20110;-78
2024/02/21 05:26:42;;;;;;;14.48;4.82;;;12.10;99.90;;;;;;5096711;28;20040;-78
2024/02/21 05:29:08;;;;;;;4.40;1.90;;;12.10;99.90;;;;;;5105977;28;20031;-79
2024/02/21 05:31:56;;;;;;;13.00;3.22;;;12.10;99.90;;;;;;5107004;28;20376;-78
2024/02/21 05:34:22;;;;;;;14.55;1.88;;;12.20;99.90;;;;;;5091019;28;20034;-78
2024/02/21 05:36:49;;;;;;;7.30;2.83;;;12.20;99.90;;;;;;5089281;28;20036;-78
2024/02/21 05:39:16;;;;;;;4.43;2.25;;;12.10;99.90;;;;;;5098375;28;20089;-77
2024/02/21 05:41:42;;;;;;;5.50;1.42;;;12.20;99.90;;;;;;5092943;28;20396;-77
2024/02/21 05:44:08;;;;;;;6.18;1.75;;;12.20;99.90;;;;;;5097994;27;20031;-78
2024/02/21 05:46:33;;;;;;;12.60;1.92;;;12.20;99.90;;;;;;5097209;27;20054;-78
2024/02/21 05:48:59;;;;;;;2.47;1.38;;;12.20;99.90;;;;;;5100977;28;20123;-78
2024/02/21 05:51:24;;;;;;;9.75;2.47;;;12.30;99.90;;;;;;5088570;28;20448;-78
2024/02/21 05:53:50;;;;;;;8.23;3.35;;;12.20;99.90;;;;;;5101655;28;20049;-78
2024/02/21 05:56:17;;;;;;;12.25;3.13;;;12.20;99.90;;;;;;5100052;28;20038;-78
2024/02/21 05:58:43;;;;;;;5.88;2.00;;;12.30;99.90;;;;;;5106872;28;20456;-78
2024/02/21 06:01:09;;;;;;;7.25;1.85;;;12.20;99.90;;;;;;5097016;28;20127;-78
2024/02/21 06:03:36;;;;;;;10.02;3.50;;;12.20;99.90;;;;;;5094550;28;20030;-78
2024/02/21 06:06:02;;;;;;;3.92;2.00;;;12.20;99.90;;;;;;5094814;28;20035;-77
2024/02/21 06:08:28;;;;;;;15.18;2.67;;;12.20;99.90;;;;;;5099058;27;20052;-78
2024/02/21 06:10:54;;;;;;;13.68;2.85;;;12.20;99.90;;;;;;5101931;28;20040;-78
2024/02/21 06:13:29;;;;;;;3.22;2.05;;;12.20;99.90;;;;;;5088312;28;20085;-78
2024/02/21 06:15:54;;;;;;;5.90;1.88;;;12.20;99.90;;;;;;5090171;28;20039;-78
2024/02/21 06:18:20;;;;;;;11.85;3.05;;;12.20;99.90;;;;;;5087349;28;20028;-78
2024/02/21 06:20:47;;;;;;;10.63;2.70;;;12.10;99.90;;;;;;5093805;28;20059;-78
2024/02/21 06:23:13;;;;;;;13.43;3.28;;;12.20;99.90;;;;;;5092626;28;20080;-77
2024/02/21 06:25:39;;;;;;;17.80;4.38;;;12.20;99.90;;;;;;5102564;28;20475;-75
2024/02/21 06:28:05;;;;;;;9.32;2.80;;;12.20;99.90;;;;;;5100594;28;20110;-78
2024/02/21 06:30:34;;;;;;;7.10;1.92;;;12.20;99.90;;;;;;5106455;28;20063;-77
2024/02/21 06:33:00;;;;;;;6.07;2.90;;;12.20;99.90;;;;;;5092890;28;20118;-77
2024/02/21 06:35:26;;;;;;;5.65;1.77;;;12.20;99.90;;;;;;5098752;28;20050;-77
2024/02/21 06:37:52;;;;;;;6.10;1.98;;;12.20;99.90;;;;;;5096494;28;20459;-78
2024/02/21 06:40:20;;;;;;;6.43;1.90;;;12.20;99.90;;;;;;5104175;28;20032;-77
2024/02/21 06:42:47;;;;;;;20.88;3.35;;;12.20;99.90;;;;;;5101743;28;20032;-77
2024/02/21 06:45:14;;;;;;;11.25;2.63;;;12.30;99.90;;;;;;5104403;27;20172;-77
2024/02/21 06:47:40;;;;;;;15.60;2.42;;;12.20;99.90;;;;;;5092076;28;20444;-78
2024/02/21 06:50:06;;;;;;;8.90;2.00;;;12.30;99.90;;;;;;5088645;28;20115;-84
2024/02/21 06:52:32;;;;;;;8.10;2.92;;;12.30;99.90;;;;;;5090679;28;20103;-78
2024/02/21 06:54:57;;;;;;;18.88;3.83;;;12.40;99.90;;;;;;5088045;28;20067;-78
2024/02/21 06:57:23;;;;;;;2.10;1.23;;;12.40;99.90;;;;;;5101972;28;20107;-78
2024/02/21 06:59:49;;;;;;;1.75;1.10;;;12.40;99.90;;;;;;5101496;28;20086;-78
2024/02/21 07:02:14;;;;;;;18.88;2.65;;;12.30;99.90;;;;;;5089477;28;20024;-78
2024/02/21 07:04:40;;;;;;;17.42;3.10;;;12.40;99.90;;;;;;5088628;28;20032;-79
2024/02/21 07:07:06;;;;;;;6.28;3.70;;;12.30;99.90;;;;;;5093623;28;20042;-78
2024/02/21 07:09:31;;;;;;;7.85;2.20;;;12.40;99.90;;;;;;5096119;27;20490;-79
2024/02/21 07:12:00;;;;;;;4.88;2.10;;;12.30;99.90;;;;;;5110926;28;20410;-78
2024/02/21 07:14:28;;;;;;;12.82;2.22;;;12.30;99.90;;;;;;5102414;28;20471;-79
2024/02/21 07:16:54;;;;;;;1.85;1.33;;;12.30;99.90;;;;;;5105121;28;20043;-79
2024/02/21 07:19:20;;;;;;;4.38;1.77;;;12.30;99.90;;;;;;5107975;28;20113;-79
2024/02/21 07:21:45;;;;;;;7.10;3.05;;;12.30;99.90;;;;;;5093092;28;20047;-83
2024/02/21 07:24:12;;;;;;;18.52;2.45;;;12.30;99.90;;;;;;5093761;28;20088;-82
2024/02/21 07:26:41;;;;;;;7.45;2.40;;;12.30;99.90;;;;;;5093313;28;20043;-79
2024/02/21 07:29:06;;;;;;;5.22;1.95;;;12.30;99.90;;;;;;5091283;28;20020;-80
2024/02/21 07:31:41;;;;;;;8.90;2.13;;;12.30;99.90;;;;;;5102744;28;20424;-80
2024/02/21 07:34:07;;;;;;;7.70;3.22;;;12.40;99.90;;;;;;5092423;28;20028;-80
2024/02/21 07:36:33;;;;;;;12.77;2.88;;;12.40;99.90;;;;;;5096052;28;20678;-81
2024/02/21 07:38:59;;;;;;;30.30;3.47;;;12.40;99.90;;;;;;5097739;28;20110;-80
2024/02/21 07:41:26;;;;;;;4.97;2.63;;;12.40;99.90;;;;;;5100555;28;20142;-80
2024/02/21 07:43:52;;;;;;;6.32;2.53;;;12.40;99.90;;;;;;5097839;27;20020;-80
2024/02/21 07:46:18;;;;;;;12.05;2.13;;;12.40;99.90;;;;;;5099626;28;20032;-80
2024/02/21 07:48:45;;;;;;;7.07;3.08;;;12.40;99.90;;;;;;5100404;28;20395;-80
2024/02/21 07:51:11;;;;;;;8.00;2.08;;;12.30;99.90;;;;;;5099686;28;20048;-81
2024/02/21 07:53:38;;;;;;;1.52;1.35;;;12.40;99.90;;;;;;5100204;28;20689;-82
2024/02/21 07:56:04;;;;;;;9.80;3.75;;;12.40;99.90;;;;;;5094571;28;20036;-80
2024/02/21 07:58:30;;;;;;;1.15;1.10;;;12.40;99.90;;;;;;5096796;28;20194;-81
2024/02/21 08:00:55;;;;;;;13.40;3.70;;;12.40;99.90;;;;;;5091526;28;20102;-79
2024/02/21 08:03:21;;;;;;;7.07;1.77;;;12.40;99.90;;;;;;5102175;28;20468;-79
2024/02/21 08:05:47;;;;;;;7.20;3.53;;;12.50;99.90;;;;;;5106995;28;20051;-81
2024/02/21 08:08:18;;;;;;;9.77;3.67;;;12.50;99.90;;;;;;5098312;28;20038;-81
2024/02/21 08:10:43;;;;;;;7.40;3.67;;;12.50;99.90;;;;;;5092720;28;20035;-81
2024/02/21 08:13:09;;;;;;;17.67;5.50;;;12.50;99.90;;;;;;5095183;28;20035;-82
2024/02/21 08:15:35;;;;;;;8.25;4.50;;;12.40;99.90;;;;;;5100194;28;20043;-82
2024/02/21 08:18:01;;;;;;;27.85;5.10;;;12.40;99.90;;;;;;5092014;28;20073;-78
2024/02/21 08:20:27;;;;;;;20.75;7.43;;;12.30;99.90;;;;;;5099873;28;20054;-79
2024/02/21 08:22:53;;;;;;;24.58;5.75;;;12.30;99.90;;;;;;5109612;28;20035;-80
2024/02/21 08:25:18;;;;;;;13.00;2.90;;;12.30;99.90;;;;;;5094180;28;20035;-78
2024/02/21 08:27:45;;;;;;;21.75;5.13;;;12.40;99.90;;;;;;5100769;28;20027;-79
2024/02/21 08:30:11;;;;;;;10.15;3.53;;;12.30;99.90;;;;;;5092094;28;20097;-79
2024/02/21 08:32:37;;;;;;;12.68;4.15;;;12.30;99.90;;;;;;5094783;28;20031;-76
2024/02/21 08:35:03;;;;;;;3.60;2.28;;;12.30;99.90;;;;;;5095889;28;20032;-79
2024/02/21 08:37:28;;;;;;;9.38;3.13;;;12.20;99.90;;;;;;5097890;28;20046;-80
2024/02/21 08:39:54;;;;;;;6.70;3.05;;;12.20;99.90;;;;;;5097569;28;20092;-82
2024/02/21 08:42:20;;;;;;;7.55;3.10;;;12.20;99.90;;;;;;5096194;28;20117;-80
2024/02/21 08:44:46;;;;;;;11.10;3.80;;;12.20;99.90;;;;;;5095008;27;20055;-81
2024/02/21 08:47:12;;;;;;;15.27;2.95;;;12.20;99.90;;;;;;5093480;28;20459;-75
2024/02/21 08:49:37;;;;;;;4.53;1.40;;;12.10;99.90;;;;;;5094609;28;20024;-79
2024/02/21 08:52:05;;;;;;;3.30;1.65;;;12.10;99.90;;;;;;5102888;28;20070;-79
2024/02/21 08:54:32;;;;;;;11.32;2.95;;;12.20;99.90;;;;;;5102809;28;20032;-79
2024/02/21 08:56:58;;;;;;;5.78;3.00;;;12.10;99.90;;;;;;5094061;28;20042;-79
2024/02/21 08:59:24;;;;;;;7.60;3.03;;;12.20;99.90;;;;;;5099612;28;20035;-79
2024/02/21 09:01:54;;;;;;;8.93;3.03;;;12.10;99.90;;;;;;5104108;28;20147;-79
2024/02/21 09:04:19;;;;;;;2.65;1.50;;;12.20;99.90;;;;;;5099091;28;20051;-79
2024/02/21 09:06:46;;;;;;;2.40;1.42;;;12.20;99.90;;;;;;5092916;28;20561;-79
2024/02/21 09:09:12;;;;;;;9.77;3.85;;;12.20;99.90;;;;;;5097231;27;20032;-79
2024/02/21 09:11:38;;;;;;;5.55;2.90;;;12.30;99.90;;;;;;5105220;28;20387;-79
2024/02/21 09:14:03;;;;;;;9.35;2.85;;;12.30;99.90;;;;;;5107467;28;20104;-79
2024/02/21 09:16:34;;;;;;;13.98;3.13;;;12.20;99.90;;;;;;5094035;28;20085;-79
2024/02/21 09:19:00;;;;;;;6.55;3.05;;;12.30;99.90;;;;;;5088292;28;20020;-79
2024/02/21 09:21:26;;;;;;;10.50;2.85;;;12.20;99.90;;;;;;5098507;28;20036;-79
2024/02/21 09:23:51;;;;;;;16.02;5.53;;;12.20;99.90;;;;;;5093184;28;20035;-79
2024/02/21 09:26:17;;;;;;;6.55;2.65;;;12.30;99.90;;;;;;5090462;28;20046;-79
2024/02/21 09:28:44;;;;;;;8.48;2.58;;;12.30;99.90;;;;;;5094500;28;20040;-79
2024/02/21 09:31:10;;;;;;;5.45;2.25;;;12.30;99.90;;;;;;5103639;28;20037;-79
2024/02/21 09:33:36;;;;;;;6.75;2.97;;;12.20;99.90;;;;;;5107287;28;20471;-79
2024/02/21 09:36:02;;;;;;;8.80;3.35;;;12.20;99.90;;;;;;5091987;28;20350;-79
2024/02/21 09:38:28;;;;;;;5.93;3.30;;;12.20;99.90;;;;;;5097382;28;20058;-79
2024/02/21 09:41:02;;;;;;;12.80;3.85;;;12.20;99.90;;;;;;5095860;28;20062;-79
2024/02/21 09:43:29;;;;;;;6.85;3.53;;;12.20;99.90;;;;;;5098946;28;20533;-79
2024/02/21 09:45:58;;;;;;;16.50;4.80;;;12.20;99.90;;;;;;5108029;27;20118;-79
2024/02/21 09:48:51;;;;;;;6.78;3.17;;;12.20;99.90;;;;;;5104758;28;20045;-79
2024/02/21 09:51:19;;;;;;;10.57;3.40;;;12.20;99.90;;;;;;5089465;28;20040;-79
2024/02/21 09:53:47;;;;;;;5.47;2.60;;;12.30;99.90;;;;;;5089869;28;20038;-79
2024/02/21 09:56:16;;;;;;;6.03;3.83;;;12.30;99.90;;;;;;5094659;28;20043;-79
2024/02/21 09:58:42;;;;;;;10.05;4.10;;;12.30;99.90;;;;;;5095969;28;20024;-79
2024/02/21 10:01:08;;;;;;;10.93;5.03;;;12.30;99.90;;;;;;5089986;28;20161;-79
2024/02/21 10:03:34;;;;;;;14.35;5.68;;;12.30;99.90;;;;;;5101722;28;20071;-79
2024/02/21 10:06:00;;;;;;;15.40;6.22;;;12.30;99.90;;;;;;5099527;28;20062;-79
2024/02/21 10:08:26;;;;;;;13.57;6.07;;;12.30;99.90;;;;;;5107207;27;20026;-79
2024/02/21 10:10:59;;;;;;;19.73;7.55;;;12.30;99.90;;;;;;5101004;28;20191;-79
2024/02/21 10:13:28;;;;;;;11.25;3.42;;;12.30;99.90;;;;;;5102853;28;20024;-80
2024/02/21 10:16:02;;;;;;;9.15;4.75;;;12.30;99.90;;;;;;5103267;28;20039;-79
2024/02/21 10:18:27;;;;;;;15.93;5.72;;;12.30;99.90;;;;;;5096690;28;20036;-79
2024/02/21 10:21:07;;;;;;;9.18;4.13;;;12.30;99.90;;;;;;5095417;28;20117;-79
2024/02/21 10:23:49;;;;;;;12.73;4.82;;;12.30;99.90;;;;;;5104947;28;20035;-79
2024/02/21 10:26:17;;;;;;;8.75;5.13;;;12.30;99.90;;;;;;5098976;28;20032;-79
2024/02/21 10:28:44;;;;;;;7.13;3.28;;;12.30;99.90;;;;;;5088141;28;20522;-79
2024/02/21 10:31:24;;;;;;;13.63;4.57;;;12.40;99.90;;;;;;5100303;28;20026;-79
2024/02/21 10:33:57;;;;;;;15.43;3.05;;;12.40;99.90;;;;;;5090197;28;20040;-79
2024/02/21 10:36:24;;;;;;;12.10;4.70;;;12.40;99.90;;;;;;5088990;28;20043;-79
2024/02/21 10:38:50;;;;;;;19.58;7.30;;;12.40;99.90;;;;;;5095081;28;20039;-79
2024/02/21 10:41:18;;;;;;;6.38;4.28;;;12.40;99.90;;;;;;5090382;28;20048;-80
2024/02/21 10:43:49;;;;;;;11.40;5.38;;;12.40;99.90;;;;;;5091057;28;20059;-79
2024/02/21 10:46:19;;;;;;;6.55;3.75;;;12.40;99.90;;;;;;5095478;27;20067;-79
2024/02/21 10:48:46;;;;;;;16.08;6.72;;;12.40;99.90;;;;;;5099592;28;20375;-79
2024/02/21 10:51:19;;;;;;;15.07;6.88;;;12.40;99.90;;;;;;5094544;28;20127;-79
2024/02/21 10:54:02;;;;;;;13.75;6.55;;;12.40;99.90;;;;;;5087767;28;20036;-79
2024/02/21 10:56:36;;;;;;;12.38;6.78;;;12.40;99.90;;;;;;5088793;28;20035;-80
2024/02/21 10:59:04;;;;;;;14.55;6.78;;;12.30;99.90;;;;;;5089579;28;20119;-79
2024/02/21 11:01:31;;;;;;;9.93;6.32;;;12.30;99.90;;;;;;5099955;28;20048;-80
2024/02/21 11:03:59;;;;;;;8.93;4.97;;;12.40;99.90;;;;;;5089181;28;20115;-79
2024/02/21 11:06:28;;;;;;;6.45;3.85;;;12.30;99.90;;;;;;5086807;28;20079;-79
2024/02/21 11:09:04;;;;;;;20.00;11.38;;;12.30;99.90;;;;;;5099201;28;20387;-79
2024/02/21 11:11:54;;;;;;;19.20;7.93;;;12.40;99.90;;;;;;5088755;28;20395;-79
2024/02/21 11:14:21;;;;;;;16.88;7.35;;;12.30;99.90;;;;;;5082844;28;20036;-79
2024/02/21 11:16:47;;;;;;;22.63;6.72;;;12.30;99.90;;;;;;5103653;28;20043;-79
2024/02/21 11:19:22;;;;;;;13.15;9.07;;;12.40;99.90;;;;;;5095137;28;20032;-79
2024/02/21 11:21:48;;;;;;;10.40;5.47;;;12.30;99.90;;;;;;5086150;28;20123;-79
2024/02/21 11:24:32;;;;;;;11.48;6.85;;;12.30;99.90;;;;;;5088997;28;20063;-79
2024/02/21 11:27:08;;;;;;;;;;;12.30;99.90;;;;;;5090587;28;20119;-79
2024/02/21 11:29:41;;;;;;;17.73;6.10;;;12.30;99.90;;;;;;5096036;28;19908;-79
2024/02/21 11:32:09;;;;;;;16.48;7.60;;;12.30;99.90;;;;;;5098606;28;20019;-79
2024/02/21 11:34:35;;;;;;;10.50;5.40;;;12.30;99.90;;;;;;5098532;28;20059;-80
2024/02/21 11:37:00;;;;;;;15.10;6.05;;;12.40;99.90;;;;;;5092028;28;20055;-79
2024/02/21 11:39:27;;;;;;;12.63;6.53;;;12.40;99.90;;;;;;5098041;28;20427;-79
2024/02/21 11:42:07;;;;;;;18.90;7.00;;;12.40;99.90;;;;;;5088866;28;20539;-79
2024/02/21 11:44:35;;;;;;;15.00;7.22;;;12.40;99.90;;;;;;5093627;28;20028;-79
2024/02/21 11:47:01;;;;;;;20.98;9.13;;;12.40;99.90;;;;;;5091656;28;20035;-79
2024/02/21 11:49:28;;;;;;;14.43;6.70;;;12.40;99.90;;;;;;5096470;28;20564;-79
2024/02/21 11:51:59;;;;;;;15.88;5.88;;;12.50;99.90;;;;;;5095031;28;20121;-79
2024/02/21 11:54:27;;;;;;;11.00;5.68;;;12.40;99.90;;;;;;5093063;28;20043;-79
2024/02/21 11:56:53;;;;;;;17.33;8.15;;;12.50;99.90;;;;;;5100452;28;20027;-79
2024/02/21 11:59:19;;;;;;;19.83;9.32;;;12.50;99.90;;;;;;5093286;28;20032;-79
2024/02/21 12:01:45;;;;;;;8.98;4.07;;;12.40;99.90;;;;;;5108044;28;20039;-79
2024/02/21 12:04:10;;;;;;;15.77;6.13;;;12.50;99.90;;;;;;5111266;28;20032;-79
2024/02/21 12:06:36;;;;;;;10.90;7.03;;;12.50;99.90;;;;;;5097731;28;20032;-79
2024/02/21 12:09:02;;;;;;;9.10;4.80;;;12.50;99.90;;;;;;5098547;28;20030;-79
2024/02/21 12:11:30;;;;;;;8.93;4.25;;;12.60;99.90;;;;;;5091997;28;20044;-79
2024/02/21 12:14:05;;;;;;;18.80;7.93;;;12.60;99.90;;;;;;5094200;28;20087;-79
2024/02/21 12:16:32;;;;;;;9.93;5.68;;;12.50;99.90;;;;;;5092374;28;20032;-79
2024/02/21 12:19:00;;;;;;;1.42;1.33;;;12.60;99.90;;;;;;5090594;28;20032;-79
2024/02/21 12:21:34;;;;;;;11.45;3.75;;;12.60;99.90;;;;;;5092874;28;20044;-79
2024/02/21 12:24:00;;;;;;;26.75;7.25;;;12.70;99.90;;;;;;5091776;28;20028;-79
2024/02/21 12:26:26;;;;;;;18.20;5.82;;;12.70;99.90;;;;;;5101871;28;20084;-79
2024/02/21 12:28:55;;;;;;;12.55;4.43;;;12.80;99.90;;;;;;5098633;28;20533;-79
2024/02/21 12:31:21;;;;;;;11.43;6.03;;;12.80;99.90;;;;;;5094771;28;20111;-79
2024/02/21 12:33:48;;;;;;;9.85;6.20;;;12.80;99.90;;;;;;5090726;28;20381;-79
2024/02/21 12:36:14;;;;;;;13.27;7.38;;;12.80;99.90;;;;;;5099098;28;20472;-79
2024/02/21 12:38:41;;;;;;;11.93;5.15;;;12.90;99.90;;;;;;5093225;28;20051;-79
2024/02/21 12:41:07;;;;;;;6.30;3.47;;;12.90;99.90;;;;;;5091627;28;20044;-79